sensor_id;sensor_type;location;lat;lon;timestamp;P1;durP1;ratioP1;P2;durP2;ratioP2
60722;SDS011;46574;52.818;6.516;2024-01-11T00:02:18;41.17;;;24.98;;
60722;SDS011;46574;52.818;6.516;2024-01-11T00:04:43;45.17;;;27.30;;
60722;SDS011;46574;52.818;6.516;2024-01-11T00:07:09;41.90;;;25.40;;
60722;SDS011;46574;52.818;6.516;2024-01-11T00:09:38;40.65;;;25.58;;
60722;SDS011;46574;52.818;6.516;2024-01-11T00:12:07;38.65;;;24.58;;
60722;SDS011;46574;52.818;6.516;2024-01-11T00:14:34;41.78;;;26.30;;
60722;SDS011;46574;52.818;6.516;2024-01-11T00:17:00;43.80;;;26.48;;
60722;SDS011;46574;52.818;6.516;2024-01-11T00:19:26;44.15;;;26.10;;
60722;SDS011;46574;52.818;6.516;2024-01-11T00:21:52;43.80;;;25.63;;
60722;SDS011;46574;52.818;6.516;2024-01-11T00:24:18;45.00;;;26.33;;
60722;SDS011;46574;52.818;6.516;2024-01-11T00:26:43;42.30;;;25.83;;
60722;SDS011;46574;52.818;6.516;2024-01-11T00:29:09;39.53;;;25.50;;
60722;SDS011;46574;52.818;6.516;2024-01-11T00:31:34;40.90;;;24.98;;
60722;SDS011;46574;52.818;6.516;2024-01-11T00:34:00;42.92;;;26.40;;
60722;SDS011;46574;52.818;6.516;2024-01-11T00:36:26;45.17;;;26.77;;
60722;SDS011;46574;52.818;6.516;2024-01-11T00:38:53;42.35;;;26.05;;
60722;SDS011;46574;52.818;6.516;2024-01-11T00:41:19;45.50;;;26.48;;
60722;SDS011;46574;52.818;6.516;2024-01-11T00:43:45;44.17;;;26.27;;
60722;SDS011;46574;52.818;6.516;2024-01-11T00:46:11;47.72;;;27.75;;
60722;SDS011;46574;52.818;6.516;2024-01-11T00:48:36;44.83;;;27.48;;
60722;SDS011;46574;52.818;6.516;2024-01-11T00:51:03;48.75;;;26.95;;
60722;SDS011;46574;52.818;6.516;2024-01-11T00:53:30;45.42;;;27.02;;
60722;SDS011;46574;52.818;6.516;2024-01-11T00:55:59;47.42;;;26.20;;
60722;SDS011;46574;52.818;6.516;2024-01-11T00:58:25;46.80;;;26.83;;
60722;SDS011;46574;52.818;6.516;2024-01-11T01:00:51;41.03;;;25.10;;
60722;SDS011;46574;52.818;6.516;2024-01-11T01:03:23;42.53;;;25.25;;
60722;SDS011;46574;52.818;6.516;2024-01-11T01:05:48;45.80;;;26.95;;
60722;SDS011;46574;52.818;6.516;2024-01-11T01:08:14;44.15;;;26.15;;
60722;SDS011;46574;52.818;6.516;2024-01-11T01:10:40;43.92;;;25.65;;
60722;SDS011;46574;52.818;6.516;2024-01-11T01:13:05;46.58;;;26.88;;
60722;SDS011;46574;52.818;6.516;2024-01-11T01:15:31;39.80;;;25.00;;
60722;SDS011;46574;52.818;6.516;2024-01-11T01:17:57;48.40;;;27.40;;
60722;SDS011;46574;52.818;6.516;2024-01-11T01:20:23;45.45;;;26.25;;
60722;SDS011;46574;52.818;6.516;2024-01-11T01:22:49;39.17;;;24.48;;
60722;SDS011;46574;52.818;6.516;2024-01-11T01:25:15;43.50;;;25.77;;
60722;SDS011;46574;52.818;6.516;2024-01-11T01:27:40;44.83;;;26.83;;
60722;SDS011;46574;52.818;6.516;2024-01-11T01:30:06;42.95;;;26.38;;
60722;SDS011;46574;52.818;6.516;2024-01-11T01:32:33;44.28;;;25.65;;
60722;SDS011;46574;52.818;6.516;2024-01-11T01:34:59;43.95;;;25.38;;
60722;SDS011;46574;52.818;6.516;2024-01-11T01:37:25;47.40;;;26.50;;
60722;SDS011;46574;52.818;6.516;2024-01-11T01:39:51;44.47;;;27.20;;
60722;SDS011;46574;52.818;6.516;2024-01-11T01:42:16;41.17;;;24.55;;
60722;SDS011;46574;52.818;6.516;2024-01-11T01:44:42;51.33;;;27.80;;
60722;SDS011;46574;52.818;6.516;2024-01-11T01:47:08;42.95;;;24.98;;
60722;SDS011;46574;52.818;6.516;2024-01-11T01:49:35;43.05;;;24.80;;
60722;SDS011;46574;52.818;6.516;2024-01-11T01:52:02;43.88;;;25.88;;
60722;SDS011;46574;52.818;6.516;2024-01-11T01:54:28;38.28;;;23.65;;
60722;SDS011;46574;52.818;6.516;2024-01-11T01:56:56;40.03;;;24.92;;
60722;SDS011;46574;52.818;6.516;2024-01-11T01:59:21;38.45;;;23.70;;
60722;SDS011;46574;52.818;6.516;2024-01-11T02:01:49;44.28;;;25.70;;
60722;SDS011;46574;52.818;6.516;2024-01-11T02:04:15;45.63;;;26.55;;
60722;SDS011;46574;52.818;6.516;2024-01-11T02:06:41;42.15;;;25.35;;
60722;SDS011;46574;52.818;6.516;2024-01-11T02:09:09;48.10;;;27.23;;
60722;SDS011;46574;52.818;6.516;2024-01-11T02:11:36;41.63;;;25.05;;
60722;SDS011;46574;52.818;6.516;2024-01-11T02:14:04;40.03;;;23.77;;
60722;SDS011;46574;52.818;6.516;2024-01-11T02:16:29;44.03;;;24.83;;
60722;SDS011;46574;52.818;6.516;2024-01-11T02:18:55;40.90;;;24.52;;
60722;SDS011;46574;52.818;6.516;2024-01-11T02:21:21;43.38;;;25.45;;
60722;SDS011;46574;52.818;6.516;2024-01-11T02:24:07;44.95;;;25.20;;
60722;SDS011;46574;52.818;6.516;2024-01-11T02:26:33;44.20;;;25.48;;
60722;SDS011;46574;52.818;6.516;2024-01-11T02:28:59;44.35;;;24.75;;
60722;SDS011;46574;52.818;6.516;2024-01-11T02:31:25;41.67;;;24.67;;
60722;SDS011;46574;52.818;6.516;2024-01-11T02:33:51;44.22;;;25.83;;
60722;SDS011;46574;52.818;6.516;2024-01-11T02:36:18;46.20;;;25.98;;
60722;SDS011;46574;52.818;6.516;2024-01-11T02:38:45;43.15;;;25.45;;
60722;SDS011;46574;52.818;6.516;2024-01-11T02:41:11;47.50;;;26.70;;
60722;SDS011;46574;52.818;6.516;2024-01-11T02:43:38;48.72;;;27.23;;
60722;SDS011;46574;52.818;6.516;2024-01-11T02:46:04;46.28;;;26.50;;
60722;SDS011;46574;52.818;6.516;2024-01-11T02:48:30;43.38;;;26.05;;
60722;SDS011;46574;52.818;6.516;2024-01-11T02:50:56;45.58;;;26.08;;
60722;SDS011;46574;52.818;6.516;2024-01-11T02:53:22;47.00;;;26.25;;
60722;SDS011;46574;52.818;6.516;2024-01-11T02:55:49;44.33;;;26.38;;
60722;SDS011;46574;52.818;6.516;2024-01-11T02:58:15;46.15;;;25.95;;
60722;SDS011;46574;52.818;6.516;2024-01-11T03:00:41;41.97;;;25.23;;
60722;SDS011;46574;52.818;6.516;2024-01-11T03:03:06;47.65;;;27.13;;
60722;SDS011;46574;52.818;6.516;2024-01-11T03:05:32;47.25;;;24.85;;
60722;SDS011;46574;52.818;6.516;2024-01-11T03:07:58;47.20;;;26.70;;
60722;SDS011;46574;52.818;6.516;2024-01-11T03:10:23;45.83;;;26.05;;
60722;SDS011;46574;52.818;6.516;2024-01-11T03:12:50;47.17;;;26.80;;
60722;SDS011;46574;52.818;6.516;2024-01-11T03:15:15;43.38;;;24.80;;
60722;SDS011;46574;52.818;6.516;2024-01-11T03:17:41;47.10;;;26.15;;
60722;SDS011;46574;52.818;6.516;2024-01-11T03:20:07;50.78;;;26.88;;
60722;SDS011;46574;52.818;6.516;2024-01-11T03:22:33;48.20;;;26.35;;
60722;SDS011;46574;52.818;6.516;2024-01-11T03:25:01;46.20;;;25.80;;
60722;SDS011;46574;52.818;6.516;2024-01-11T03:27:27;43.93;;;25.03;;
60722;SDS011;46574;52.818;6.516;2024-01-11T03:29:53;46.13;;;26.58;;
60722;SDS011;46574;52.818;6.516;2024-01-11T03:32:18;41.33;;;23.55;;
60722;SDS011;46574;52.818;6.516;2024-01-11T03:34:44;45.58;;;25.30;;
60722;SDS011;46574;52.818;6.516;2024-01-11T03:37:09;49.10;;;26.90;;
60722;SDS011;46574;52.818;6.516;2024-01-11T03:39:35;44.88;;;25.58;;
60722;SDS011;46574;52.818;6.516;2024-01-11T03:42:01;42.30;;;24.50;;
60722;SDS011;46574;52.818;6.516;2024-01-11T03:44:28;46.95;;;26.67;;
60722;SDS011;46574;52.818;6.516;2024-01-11T03:46:54;49.55;;;26.98;;
60722;SDS011;46574;52.818;6.516;2024-01-11T03:49:19;48.03;;;25.60;;
60722;SDS011;46574;52.818;6.516;2024-01-11T03:51:45;47.40;;;25.65;;
60722;SDS011;46574;52.818;6.516;2024-01-11T03:54:11;49.38;;;27.08;;
60722;SDS011;46574;52.818;6.516;2024-01-11T03:56:39;52.10;;;27.08;;
60722;SDS011;46574;52.818;6.516;2024-01-11T03:59:05;40.70;;;23.88;;
60722;SDS011;46574;52.818;6.516;2024-01-11T04:01:31;51.92;;;28.00;;
60722;SDS011;46574;52.818;6.516;2024-01-11T04:03:57;44.38;;;24.20;;
60722;SDS011;46574;52.818;6.516;2024-01-11T04:06:23;45.53;;;24.73;;
60722;SDS011;46574;52.818;6.516;2024-01-11T04:08:49;50.30;;;26.70;;
60722;SDS011;46574;52.818;6.516;2024-01-11T04:11:16;42.60;;;23.92;;
60722;SDS011;46574;52.818;6.516;2024-01-11T04:13:41;44.70;;;26.30;;
60722;SDS011;46574;52.818;6.516;2024-01-11T04:16:07;48.45;;;25.70;;
60722;SDS011;46574;52.818;6.516;2024-01-11T04:18:33;47.33;;;25.70;;
60722;SDS011;46574;52.818;6.516;2024-01-11T04:20:59;50.58;;;27.73;;
60722;SDS011;46574;52.818;6.516;2024-01-11T04:23:25;39.28;;;23.02;;
60722;SDS011;46574;52.818;6.516;2024-01-11T04:25:50;49.55;;;26.65;;
60722;SDS011;46574;52.818;6.516;2024-01-11T04:28:16;45.78;;;26.20;;
60722;SDS011;46574;52.818;6.516;2024-01-11T04:30:43;47.95;;;25.58;;
60722;SDS011;46574;52.818;6.516;2024-01-11T04:33:09;53.63;;;27.90;;
60722;SDS011;46574;52.818;6.516;2024-01-11T04:35:35;53.42;;;27.95;;
60722;SDS011;46574;52.818;6.516;2024-01-11T04:38:01;47.63;;;26.15;;
60722;SDS011;46574;52.818;6.516;2024-01-11T04:40:26;49.47;;;25.92;;
60722;SDS011;46574;52.818;6.516;2024-01-11T04:42:52;49.22;;;28.55;;
60722;SDS011;46574;52.818;6.516;2024-01-11T04:45:18;45.67;;;26.25;;
60722;SDS011;46574;52.818;6.516;2024-01-11T04:47:43;51.35;;;28.27;;
60722;SDS011;46574;52.818;6.516;2024-01-11T04:50:09;45.60;;;25.08;;
60722;SDS011;46574;52.818;6.516;2024-01-11T04:52:34;45.47;;;26.08;;
60722;SDS011;46574;52.818;6.516;2024-01-11T04:55:00;44.30;;;25.13;;
60722;SDS011;46574;52.818;6.516;2024-01-11T04:57:26;51.50;;;27.13;;
60722;SDS011;46574;52.818;6.516;2024-01-11T04:59:52;52.60;;;27.77;;
60722;SDS011;46574;52.818;6.516;2024-01-11T05:02:20;50.42;;;26.98;;
60722;SDS011;46574;52.818;6.516;2024-01-11T05:04:46;47.47;;;26.45;;
60722;SDS011;46574;52.818;6.516;2024-01-11T05:07:13;52.53;;;26.25;;
60722;SDS011;46574;52.818;6.516;2024-01-11T05:09:38;54.42;;;29.38;;
60722;SDS011;46574;52.818;6.516;2024-01-11T05:12:04;55.25;;;28.67;;
60722;SDS011;46574;52.818;6.516;2024-01-11T05:14:30;53.35;;;28.83;;
60722;SDS011;46574;52.818;6.516;2024-01-11T05:16:56;52.58;;;28.23;;
60722;SDS011;46574;52.818;6.516;2024-01-11T05:19:21;51.33;;;27.83;;
60722;SDS011;46574;52.818;6.516;2024-01-11T05:21:47;53.72;;;29.05;;
60722;SDS011;46574;52.818;6.516;2024-01-11T05:24:13;53.50;;;28.52;;
60722;SDS011;46574;52.818;6.516;2024-01-11T05:26:38;52.50;;;28.10;;
60722;SDS011;46574;52.818;6.516;2024-01-11T05:29:04;57.67;;;29.92;;
60722;SDS011;46574;52.818;6.516;2024-01-11T05:31:30;57.00;;;28.92;;
60722;SDS011;46574;52.818;6.516;2024-01-11T05:33:55;59.60;;;30.63;;
60722;SDS011;46574;52.818;6.516;2024-01-11T05:36:21;56.47;;;30.40;;
60722;SDS011;46574;52.818;6.516;2024-01-11T05:38:47;58.83;;;30.40;;
60722;SDS011;46574;52.818;6.516;2024-01-11T05:41:12;58.50;;;28.95;;
60722;SDS011;46574;52.818;6.516;2024-01-11T05:43:39;54.45;;;29.40;;
60722;SDS011;46574;52.818;6.516;2024-01-11T05:46:05;57.03;;;29.42;;
60722;SDS011;46574;52.818;6.516;2024-01-11T05:48:32;55.50;;;30.83;;
60722;SDS011;46574;52.818;6.516;2024-01-11T05:50:57;56.78;;;31.08;;
60722;SDS011;46574;52.818;6.516;2024-01-11T05:53:23;58.50;;;32.05;;
60722;SDS011;46574;52.818;6.516;2024-01-11T05:55:49;57.13;;;29.25;;
60722;SDS011;46574;52.818;6.516;2024-01-11T05:58:15;60.50;;;32.65;;
60722;SDS011;46574;52.818;6.516;2024-01-11T06:00:41;60.40;;;31.88;;
60722;SDS011;46574;52.818;6.516;2024-01-11T06:03:07;52.70;;;29.67;;
60722;SDS011;46574;52.818;6.516;2024-01-11T06:05:33;56.78;;;30.77;;
60722;SDS011;46574;52.818;6.516;2024-01-11T06:07:58;56.50;;;30.30;;
60722;SDS011;46574;52.818;6.516;2024-01-11T06:10:24;58.10;;;29.95;;
60722;SDS011;46574;52.818;6.516;2024-01-11T06:12:50;60.83;;;32.30;;
60722;SDS011;46574;52.818;6.516;2024-01-11T06:15:15;55.83;;;30.92;;
60722;SDS011;46574;52.818;6.516;2024-01-11T06:17:41;55.10;;;30.02;;
60722;SDS011;46574;52.818;6.516;2024-01-11T06:20:07;61.83;;;32.17;;
60722;SDS011;46574;52.818;6.516;2024-01-11T06:22:35;48.95;;;28.08;;
60722;SDS011;46574;52.818;6.516;2024-01-11T06:25:00;50.50;;;28.85;;
60722;SDS011;46574;52.818;6.516;2024-01-11T06:27:26;55.42;;;31.25;;
60722;SDS011;46574;52.818;6.516;2024-01-11T06:29:52;53.53;;;30.08;;
60722;SDS011;46574;52.818;6.516;2024-01-11T06:32:17;58.53;;;31.45;;
60722;SDS011;46574;52.818;6.516;2024-01-11T06:34:43;54.65;;;29.88;;
60722;SDS011;46574;52.818;6.516;2024-01-11T06:37:11;59.22;;;31.95;;
60722;SDS011;46574;52.818;6.516;2024-01-11T06:39:37;56.05;;;29.42;;
60722;SDS011;46574;52.818;6.516;2024-01-11T06:42:06;45.10;;;26.52;;
60722;SDS011;46574;52.818;6.516;2024-01-11T06:44:31;55.10;;;29.33;;
60722;SDS011;46574;52.818;6.516;2024-01-11T06:46:57;52.20;;;28.75;;
60722;SDS011;46574;52.818;6.516;2024-01-11T06:49:22;53.53;;;30.83;;
60722;SDS011;46574;52.818;6.516;2024-01-11T06:51:48;57.72;;;32.30;;
60722;SDS011;46574;52.818;6.516;2024-01-11T06:54:14;64.13;;;35.17;;
60722;SDS011;46574;52.818;6.516;2024-01-11T06:56:40;58.75;;;30.67;;
60722;SDS011;46574;52.818;6.516;2024-01-11T06:59:06;52.42;;;29.95;;
60722;SDS011;46574;52.818;6.516;2024-01-11T07:01:32;59.45;;;32.50;;
60722;SDS011;46574;52.818;6.516;2024-01-11T07:03:58;56.08;;;30.73;;
60722;SDS011;46574;52.818;6.516;2024-01-11T07:06:24;50.42;;;28.98;;
60722;SDS011;46574;52.818;6.516;2024-01-11T07:08:49;57.53;;;31.90;;
60722;SDS011;46574;52.818;6.516;2024-01-11T07:11:15;62.65;;;33.35;;
60722;SDS011;46574;52.818;6.516;2024-01-11T07:13:41;55.72;;;31.83;;
60722;SDS011;46574;52.818;6.516;2024-01-11T07:16:07;57.70;;;32.50;;
60722;SDS011;46574;52.818;6.516;2024-01-11T07:18:33;57.10;;;32.50;;
60722;SDS011;46574;52.818;6.516;2024-01-11T07:20:59;62.60;;;33.92;;
60722;SDS011;46574;52.818;6.516;2024-01-11T07:23:26;58.08;;;32.53;;
60722;SDS011;46574;52.818;6.516;2024-01-11T07:25:52;54.13;;;29.75;;
60722;SDS011;46574;52.818;6.516;2024-01-11T07:28:18;64.10;;;35.15;;
60722;SDS011;46574;52.818;6.516;2024-01-11T07:30:44;51.83;;;29.73;;
60722;SDS011;46574;52.818;6.516;2024-01-11T07:33:11;62.08;;;33.25;;
60722;SDS011;46574;52.818;6.516;2024-01-11T07:35:37;59.47;;;33.15;;
60722;SDS011;46574;52.818;6.516;2024-01-11T07:38:02;56.03;;;30.65;;
60722;SDS011;46574;52.818;6.516;2024-01-11T07:40:29;60.08;;;32.80;;
60722;SDS011;46574;52.818;6.516;2024-01-11T07:42:54;51.20;;;28.13;;
60722;SDS011;46574;52.818;6.516;2024-01-11T07:45:20;57.67;;;32.70;;
60722;SDS011;46574;52.818;6.516;2024-01-11T07:47:46;54.25;;;29.92;;
60722;SDS011;46574;52.818;6.516;2024-01-11T07:50:12;50.10;;;29.45;;
60722;SDS011;46574;52.818;6.516;2024-01-11T07:52:38;54.00;;;30.15;;
60722;SDS011;46574;52.818;6.516;2024-01-11T07:55:04;63.83;;;36.45;;
60722;SDS011;46574;52.818;6.516;2024-01-11T07:57:35;62.20;;;34.97;;
60722;SDS011;46574;52.818;6.516;2024-01-11T08:00:02;61.75;;;33.70;;
60722;SDS011;46574;52.818;6.516;2024-01-11T08:02:28;59.30;;;32.35;;
60722;SDS011;46574;52.818;6.516;2024-01-11T08:04:54;58.65;;;33.17;;
60722;SDS011;46574;52.818;6.516;2024-01-11T08:07:20;57.45;;;33.65;;
60722;SDS011;46574;52.818;6.516;2024-01-11T08:09:46;55.80;;;31.35;;
60722;SDS011;46574;52.818;6.516;2024-01-11T08:12:13;53.53;;;31.17;;
60722;SDS011;46574;52.818;6.516;2024-01-11T08:14:41;55.25;;;30.98;;
60722;SDS011;46574;52.818;6.516;2024-01-11T08:17:07;60.72;;;33.15;;
60722;SDS011;46574;52.818;6.516;2024-01-11T08:19:33;48.90;;;28.92;;
60722;SDS011;46574;52.818;6.516;2024-01-11T08:21:59;60.40;;;33.22;;
60722;SDS011;46574;52.818;6.516;2024-01-11T08:24:25;53.70;;;30.65;;
60722;SDS011;46574;52.818;6.516;2024-01-11T08:26:51;63.30;;;33.80;;
60722;SDS011;46574;52.818;6.516;2024-01-11T08:29:17;60.05;;;34.15;;
60722;SDS011;46574;52.818;6.516;2024-01-11T08:31:45;57.13;;;32.70;;
60722;SDS011;46574;52.818;6.516;2024-01-11T08:34:10;64.47;;;34.53;;
60722;SDS011;46574;52.818;6.516;2024-01-11T08:36:36;60.00;;;33.03;;
60722;SDS011;46574;52.818;6.516;2024-01-11T08:39:03;60.03;;;32.53;;
60722;SDS011;46574;52.818;6.516;2024-01-11T08:41:37;64.75;;;35.40;;
60722;SDS011;46574;52.818;6.516;2024-01-11T08:44:03;62.00;;;34.22;;
60722;SDS011;46574;52.818;6.516;2024-01-11T08:46:32;55.08;;;32.38;;
60722;SDS011;46574;52.818;6.516;2024-01-11T08:48:59;62.10;;;34.42;;
60722;SDS011;46574;52.818;6.516;2024-01-11T08:51:26;61.85;;;33.25;;
60722;SDS011;46574;52.818;6.516;2024-01-11T08:53:52;51.28;;;30.60;;
60722;SDS011;46574;52.818;6.516;2024-01-11T08:56:18;55.20;;;32.75;;
60722;SDS011;46574;52.818;6.516;2024-01-11T08:58:44;59.92;;;34.00;;
60722;SDS011;46574;52.818;6.516;2024-01-11T09:01:10;57.22;;;33.25;;
60722;SDS011;46574;52.818;6.516;2024-01-11T09:03:36;62.15;;;34.65;;
60722;SDS011;46574;52.818;6.516;2024-01-11T09:06:02;64.18;;;35.38;;
60722;SDS011;46574;52.818;6.516;2024-01-11T09:08:28;63.20;;;34.97;;
60722;SDS011;46574;52.818;6.516;2024-01-11T09:10:58;60.45;;;34.47;;
60722;SDS011;46574;52.818;6.516;2024-01-11T09:13:24;58.88;;;33.00;;
60722;SDS011;46574;52.818;6.516;2024-01-11T09:15:53;64.40;;;35.47;;
60722;SDS011;46574;52.818;6.516;2024-01-11T09:18:19;59.00;;;34.03;;
60722;SDS011;46574;52.818;6.516;2024-01-11T09:20:45;64.72;;;35.95;;
60722;SDS011;46574;52.818;6.516;2024-01-11T09:23:12;54.30;;;31.00;;
60722;SDS011;46574;52.818;6.516;2024-01-11T09:25:38;46.28;;;28.60;;
60722;SDS011;46574;52.818;6.516;2024-01-11T09:28:04;64.40;;;34.60;;
60722;SDS011;46574;52.818;6.516;2024-01-11T09:30:30;65.80;;;35.83;;
60722;SDS011;46574;52.818;6.516;2024-01-11T09:32:56;55.03;;;30.80;;
60722;SDS011;46574;52.818;6.516;2024-01-11T09:35:22;50.72;;;30.20;;
60722;SDS011;46574;52.818;6.516;2024-01-11T09:37:48;59.92;;;33.75;;
60722;SDS011;46574;52.818;6.516;2024-01-11T09:40:15;56.55;;;34.53;;
60722;SDS011;46574;52.818;6.516;2024-01-11T09:42:42;52.78;;;30.70;;
60722;SDS011;46574;52.818;6.516;2024-01-11T09:45:08;58.25;;;32.35;;
60722;SDS011;46574;52.818;6.516;2024-01-11T09:47:37;59.85;;;34.25;;
60722;SDS011;46574;52.818;6.516;2024-01-11T09:50:04;59.65;;;33.83;;
60722;SDS011;46574;52.818;6.516;2024-01-11T09:52:33;66.38;;;35.15;;
60722;SDS011;46574;52.818;6.516;2024-01-11T09:54:59;62.25;;;34.97;;
60722;SDS011;46574;52.818;6.516;2024-01-11T09:57:29;63.05;;;35.65;;
60722;SDS011;46574;52.818;6.516;2024-01-11T09:59:57;62.78;;;33.92;;
60722;SDS011;46574;52.818;6.516;2024-01-11T10:02:26;54.38;;;32.72;;
60722;SDS011;46574;52.818;6.516;2024-01-11T10:04:52;65.60;;;36.15;;
60722;SDS011;46574;52.818;6.516;2024-01-11T10:07:20;63.17;;;34.58;;
60722;SDS011;46574;52.818;6.516;2024-01-11T10:09:47;61.67;;;34.85;;
60722;SDS011;46574;52.818;6.516;2024-01-11T10:12:14;63.95;;;35.00;;
60722;SDS011;46574;52.818;6.516;2024-01-11T10:14:40;58.65;;;32.53;;
60722;SDS011;46574;52.818;6.516;2024-01-11T10:17:06;62.88;;;34.45;;
60722;SDS011;46574;52.818;6.516;2024-01-11T10:19:32;60.42;;;34.08;;
60722;SDS011;46574;52.818;6.516;2024-01-11T10:21:58;61.88;;;34.58;;
60722;SDS011;46574;52.818;6.516;2024-01-11T10:24:23;57.67;;;33.08;;
60722;SDS011;46574;52.818;6.516;2024-01-11T10:26:51;63.00;;;33.28;;
60722;SDS011;46574;52.818;6.516;2024-01-11T10:29:31;59.80;;;34.15;;
60722;SDS011;46574;52.818;6.516;2024-01-11T10:31:58;56.95;;;34.10;;
60722;SDS011;46574;52.818;6.516;2024-01-11T10:34:24;55.13;;;32.30;;
60722;SDS011;46574;52.818;6.516;2024-01-11T10:36:52;56.85;;;32.75;;
60722;SDS011;46574;52.818;6.516;2024-01-11T10:39:19;61.60;;;34.28;;
60722;SDS011;46574;52.818;6.516;2024-01-11T10:42:00;59.95;;;32.90;;
60722;SDS011;46574;52.818;6.516;2024-01-11T10:44:30;57.15;;;32.42;;
60722;SDS011;46574;52.818;6.516;2024-01-11T10:46:59;54.10;;;31.23;;
60722;SDS011;46574;52.818;6.516;2024-01-11T10:49:27;58.67;;;33.95;;
60722;SDS011;46574;52.818;6.516;2024-01-11T10:51:58;62.28;;;34.55;;
60722;SDS011;46574;52.818;6.516;2024-01-11T10:54:27;56.83;;;32.63;;
60722;SDS011;46574;52.818;6.516;2024-01-11T10:56:54;52.78;;;31.30;;
60722;SDS011;46574;52.818;6.516;2024-01-11T10:59:21;54.20;;;32.85;;
60722;SDS011;46574;52.818;6.516;2024-01-11T11:01:54;55.13;;;32.03;;
60722;SDS011;46574;52.818;6.516;2024-01-11T11:04:22;54.88;;;31.42;;
60722;SDS011;46574;52.818;6.516;2024-01-11T11:06:54;55.50;;;31.20;;
60722;SDS011;46574;52.818;6.516;2024-01-11T11:09:22;50.63;;;29.88;;
60722;SDS011;46574;52.818;6.516;2024-01-11T11:11:48;50.55;;;29.90;;
60722;SDS011;46574;52.818;6.516;2024-01-11T11:14:15;51.97;;;30.83;;
60722;SDS011;46574;52.818;6.516;2024-01-11T11:16:41;54.83;;;31.17;;
60722;SDS011;46574;52.818;6.516;2024-01-11T11:19:07;53.22;;;31.55;;
60722;SDS011;46574;52.818;6.516;2024-01-11T11:21:41;51.42;;;30.45;;
60722;SDS011;46574;52.818;6.516;2024-01-11T11:24:10;52.78;;;30.02;;
60722;SDS011;46574;52.818;6.516;2024-01-11T11:26:36;52.03;;;31.13;;
60722;SDS011;46574;52.818;6.516;2024-01-11T11:29:03;54.47;;;31.70;;
60722;SDS011;46574;52.818;6.516;2024-01-11T11:31:41;53.60;;;31.38;;
60722;SDS011;46574;52.818;6.516;2024-01-11T11:34:12;53.15;;;31.42;;
60722;SDS011;46574;52.818;6.516;2024-01-11T11:36:39;55.90;;;31.05;;
60722;SDS011;46574;52.818;6.516;2024-01-11T11:39:09;49.83;;;29.05;;
60722;SDS011;46574;52.818;6.516;2024-01-11T11:41:38;49.38;;;29.40;;
60722;SDS011;46574;52.818;6.516;2024-01-11T11:44:05;48.78;;;29.65;;
60722;SDS011;46574;52.818;6.516;2024-01-11T11:46:31;50.28;;;28.95;;
60722;SDS011;46574;52.818;6.516;2024-01-11T11:48:58;48.50;;;28.45;;
60722;SDS011;46574;52.818;6.516;2024-01-11T11:51:25;47.53;;;29.77;;
60722;SDS011;46574;52.818;6.516;2024-01-11T11:53:51;52.13;;;29.55;;
60722;SDS011;46574;52.818;6.516;2024-01-11T11:56:18;48.97;;;29.55;;
60722;SDS011;46574;52.818;6.516;2024-01-11T11:58:45;50.45;;;29.80;;
60722;SDS011;46574;52.818;6.516;2024-01-11T12:01:12;48.08;;;28.33;;
60722;SDS011;46574;52.818;6.516;2024-01-11T12:03:40;48.92;;;29.08;;
60722;SDS011;46574;52.818;6.516;2024-01-11T12:06:07;49.35;;;29.75;;
60722;SDS011;46574;52.818;6.516;2024-01-11T12:08:35;53.05;;;30.80;;
60722;SDS011;46574;52.818;6.516;2024-01-11T12:11:01;49.50;;;30.08;;
60722;SDS011;46574;52.818;6.516;2024-01-11T12:13:28;53.10;;;30.70;;
60722;SDS011;46574;52.818;6.516;2024-01-11T12:15:56;52.10;;;30.42;;
60722;SDS011;46574;52.818;6.516;2024-01-11T12:18:22;48.05;;;29.58;;
60722;SDS011;46574;52.818;6.516;2024-01-11T12:20:47;46.75;;;28.88;;
60722;SDS011;46574;52.818;6.516;2024-01-11T12:23:13;46.72;;;28.48;;
60722;SDS011;46574;52.818;6.516;2024-01-11T12:25:40;45.75;;;27.85;;
60722;SDS011;46574;52.818;6.516;2024-01-11T12:28:06;47.58;;;28.80;;
60722;SDS011;46574;52.818;6.516;2024-01-11T12:30:32;47.13;;;28.30;;
60722;SDS011;46574;52.818;6.516;2024-01-11T12:32:58;45.80;;;27.10;;
60722;SDS011;46574;52.818;6.516;2024-01-11T12:35:26;46.88;;;27.90;;
60722;SDS011;46574;52.818;6.516;2024-01-11T12:37:58;44.78;;;27.90;;
60722;SDS011;46574;52.818;6.516;2024-01-11T12:40:32;47.22;;;27.73;;
60722;SDS011;46574;52.818;6.516;2024-01-11T12:42:59;46.90;;;27.90;;
60722;SDS011;46574;52.818;6.516;2024-01-11T12:45:25;46.78;;;27.40;;
60722;SDS011;46574;52.818;6.516;2024-01-11T12:47:51;46.95;;;27.75;;
60722;SDS011;46574;52.818;6.516;2024-01-11T12:50:18;44.60;;;27.95;;
60722;SDS011;46574;52.818;6.516;2024-01-11T12:52:45;46.50;;;27.75;;
60722;SDS011;46574;52.818;6.516;2024-01-11T12:55:19;49.17;;;29.40;;
60722;SDS011;46574;52.818;6.516;2024-01-11T12:57:44;46.03;;;28.83;;
60722;SDS011;46574;52.818;6.516;2024-01-11T13:00:11;46.92;;;29.20;;
60722;SDS011;46574;52.818;6.516;2024-01-11T13:02:41;53.15;;;29.75;;
60722;SDS011;46574;52.818;6.516;2024-01-11T13:05:11;52.30;;;29.35;;
60722;SDS011;46574;52.818;6.516;2024-01-11T13:07:37;51.80;;;29.25;;
60722;SDS011;46574;52.818;6.516;2024-01-11T13:10:03;48.80;;;28.88;;
60722;SDS011;46574;52.818;6.516;2024-01-11T13:12:30;51.88;;;30.38;;
60722;SDS011;46574;52.818;6.516;2024-01-11T13:14:56;59.67;;;32.55;;
60722;SDS011;46574;52.818;6.516;2024-01-11T13:17:21;54.97;;;31.73;;
60722;SDS011;46574;52.818;6.516;2024-01-11T13:19:47;55.08;;;32.88;;
60722;SDS011;46574;52.818;6.516;2024-01-11T13:22:13;57.63;;;33.50;;
60722;SDS011;46574;52.818;6.516;2024-01-11T13:24:38;58.97;;;32.72;;
60722;SDS011;46574;52.818;6.516;2024-01-11T13:27:04;53.47;;;30.60;;
60722;SDS011;46574;52.818;6.516;2024-01-11T13:29:30;60.05;;;33.25;;
60722;SDS011;46574;52.818;6.516;2024-01-11T13:31:55;54.55;;;32.90;;
60722;SDS011;46574;52.818;6.516;2024-01-11T13:34:21;63.53;;;33.78;;
60722;SDS011;46574;52.818;6.516;2024-01-11T13:36:47;53.72;;;33.03;;
60722;SDS011;46574;52.818;6.516;2024-01-11T13:39:12;59.40;;;33.88;;
60722;SDS011;46574;52.818;6.516;2024-01-11T13:41:38;65.32;;;35.55;;
60722;SDS011;46574;52.818;6.516;2024-01-11T13:44:05;64.97;;;35.60;;
60722;SDS011;46574;52.818;6.516;2024-01-11T13:46:32;60.55;;;34.60;;
60722;SDS011;46574;52.818;6.516;2024-01-11T13:48:58;63.45;;;35.55;;
60722;SDS011;46574;52.818;6.516;2024-01-11T13:51:23;70.15;;;37.55;;
60722;SDS011;46574;52.818;6.516;2024-01-11T13:53:49;65.50;;;37.72;;
60722;SDS011;46574;52.818;6.516;2024-01-11T13:56:15;63.65;;;34.95;;
60722;SDS011;46574;52.818;6.516;2024-01-11T13:58:41;68.40;;;37.88;;
60722;SDS011;46574;52.818;6.516;2024-01-11T14:01:06;64.32;;;37.13;;
60722;SDS011;46574;52.818;6.516;2024-01-11T14:03:32;72.35;;;39.20;;
60722;SDS011;46574;52.818;6.516;2024-01-11T14:05:59;74.38;;;39.05;;
60722;SDS011;46574;52.818;6.516;2024-01-11T14:08:25;73.30;;;40.70;;
60722;SDS011;46574;52.818;6.516;2024-01-11T14:10:51;69.43;;;37.65;;
60722;SDS011;46574;52.818;6.516;2024-01-11T14:13:18;79.43;;;42.38;;
60722;SDS011;46574;52.818;6.516;2024-01-11T14:15:43;69.22;;;37.80;;
60722;SDS011;46574;52.818;6.516;2024-01-11T14:18:09;81.72;;;41.15;;